Arkholme, United Kingdom
Current Conditions -  °F | °C
As of 6:50 AM on Friday 28 Nov 2014 (Local Time) from EGNO Reporting Station
Broken Clouds Broken Clouds  
Wind Chill: 41°   Ceiling: 2300
Heat Index: 46°   Visibility: 6mi
Dew Point: 45°   Wind: 10mph
Humidity: 93%   Direction: 70°ENE
Pressure: 29.62"   Gusts: NA
Location:  54.13°N, 2.75°W
Report Text: EGNO 280650Z 07009KT 9000 FEW011 BKN023 08/07 Q1003
Loading
Personal Weather Stations






























Interactive Weather Map New forecast layout! Learn more

10-Day Weather Forecast

Advertisements
Track Severe Weather on mobile